Time;durP1;ratioP1;P1;durP2;ratioP2;P2;SDS_P1;SDS_P2;PMS_P1;PMS_P2;Temp;Humidity;BMP_temperature;BMP_pressure;BME280_temperature;BME280_humidity;BME280_pressure;Samples;Min_cycle;Max_cycle;Signal;HPM_P1;HPM_P2
2023/06/18 00:00:34;;;;;;;9.97;7.47;;;19.10;99.90;;;;;;5055599;28;20261;-60
2023/06/18 00:02:59;;;;;;;8.07;7.37;;;19.10;99.90;;;;;;5038982;28;20169;-60
2023/06/18 00:05:25;;;;;;;8.10;7.30;;;19.00;99.90;;;;;;5034997;28;20283;-60
2023/06/18 00:07:50;;;;;;;9.60;7.90;;;19.00;99.90;;;;;;5035716;28;20189;-60
2023/06/18 00:10:16;;;;;;;7.93;7.13;;;19.00;99.90;;;;;;5035441;28;20182;-61
2023/06/18 00:12:41;;;;;;;9.13;7.57;;;19.00;99.90;;;;;;5036208;28;20643;-60
2023/06/18 00:15:08;;;;;;;10.10;7.43;;;18.90;99.90;;;;;;5035962;28;20235;-60
2023/06/18 00:17:33;;;;;;;10.23;7.60;;;18.80;99.90;;;;;;5035633;28;20174;-60
2023/06/18 00:19:59;;;;;;;8.70;7.90;;;18.80;99.90;;;;;;5035837;28;20239;-60
2023/06/18 00:22:26;;;;;;;8.33;7.53;;;18.80;99.90;;;;;;5034744;28;20210;-60
2023/06/18 00:24:52;;;;;;;8.63;7.80;;;18.80;99.90;;;;;;5034912;28;20348;-60
2023/06/18 00:27:20;;;;;;;8.80;7.90;;;18.80;99.90;;;;;;5034408;28;20174;-60
2023/06/18 00:29:47;;;;;;;8.30;7.50;;;18.70;99.90;;;;;;5035986;28;20162;-60
2023/06/18 00:32:16;;;;;;;10.60;8.17;;;18.70;99.90;;;;;;5032708;28;20202;-60
2023/06/18 00:34:42;;;;;;;8.60;7.80;;;18.70;99.90;;;;;;5032041;28;20170;-59
2023/06/18 00:37:10;;;;;;;8.90;7.80;;;18.60;99.90;;;;;;5031262;28;20162;-61
2023/06/18 00:39:37;;;;;;;11.17;8.37;;;18.60;99.90;;;;;;5030453;28;20455;-61
2023/06/18 00:42:05;;;;;;;8.97;7.97;;;18.60;99.90;;;;;;5029366;28;20201;-61
2023/06/18 00:44:33;;;;;;;8.40;7.60;;;18.60;99.90;;;;;;5030498;28;20170;-60
2023/06/18 00:46:59;;;;;;;8.43;7.63;;;18.50;99.90;;;;;;5030408;28;20217;-62
2023/06/18 00:49:27;;;;;;;8.47;7.67;;;18.50;99.90;;;;;;5029786;28;20182;-61
2023/06/18 00:51:52;;;;;;;8.47;7.60;;;18.50;99.90;;;;;;5027541;28;20166;-60
2023/06/18 00:54:18;;;;;;;8.23;7.43;;;18.50;99.90;;;;;;5028510;28;20473;-60
2023/06/18 00:56:52;;;;;;;10.27;7.93;;;18.50;99.90;;;;;;5031870;28;20181;-61
2023/06/18 00:59:22;;;;;;;9.13;7.93;;;18.50;99.90;;;;;;5033247;28;20549;-61
2023/06/18 01:01:56;;;;;;;7.87;7.13;;;18.40;99.90;;;;;;5033216;28;20240;-60
2023/06/18 01:04:27;;;;;;;10.40;7.83;;;18.30;99.90;;;;;;5033602;28;20226;-61
2023/06/18 01:06:55;;;;;;;10.47;8.10;;;18.30;99.90;;;;;;5035654;28;20274;-61
2023/06/18 01:09:23;;;;;;;8.57;7.37;;;18.30;99.90;;;;;;5037362;28;20171;-60
2023/06/18 01:11:53;;;;;;;8.50;7.43;;;18.30;99.90;;;;;;5035092;28;20166;-60
2023/06/18 01:14:26;;;;;;;9.63;7.77;;;18.30;99.90;;;;;;5033917;28;20311;-60
2023/06/18 01:16:55;;;;;;;8.40;7.60;;;18.30;99.90;;;;;;5033818;28;20254;-61
2023/06/18 01:19:27;;;;;;;8.13;7.33;;;18.30;99.90;;;;;;5033764;28;20193;-61
2023/06/18 01:22:01;;;;;;;9.77;8.03;;;18.30;99.90;;;;;;5037482;28;20166;-61
2023/06/18 01:24:32;;;;;;;9.30;8.30;;;18.20;99.90;;;;;;5038865;28;20466;-61
2023/06/18 01:26:58;;;;;;;10.23;8.30;;;18.20;99.90;;;;;;5038883;28;20229;-61
2023/06/18 01:29:26;;;;;;;8.53;7.67;;;18.10;99.90;;;;;;5039347;28;20217;-61
2023/06/18 01:31:52;;;;;;;9.33;8.33;;;18.10;99.90;;;;;;5038765;28;20429;-61
2023/06/18 01:34:18;;;;;;;9.87;8.27;;;18.00;99.90;;;;;;5039457;28;20547;-61
2023/06/18 01:37:03;;;;;;;13.83;8.20;;;18.00;99.90;;;;;;5038931;28;20174;-58
2023/06/18 01:39:39;;;;;;;9.50;8.50;;;18.00;99.90;;;;;;5039749;28;20541;-61
2023/06/18 01:42:16;;;;;;;9.17;8.37;;;18.00;99.90;;;;;;5039014;28;20169;-61
2023/06/18 01:44:50;;;;;;;8.77;7.90;;;18.00;99.90;;;;;;5037366;28;20181;-61
2023/06/18 01:47:18;;;;;;;9.20;8.30;;;18.00;99.90;;;;;;5037611;28;20169;-61
2023/06/18 01:49:45;;;;;;;8.77;7.87;;;17.90;99.90;;;;;;5038205;28;20825;-61
2023/06/18 01:52:15;;;;;;;8.97;7.70;;;17.90;99.90;;;;;;5037828;28;20182;-61
2023/06/18 01:54:46;;;;;;;8.93;8.03;;;17.90;99.90;;;;;;5037374;28;20181;-61
2023/06/18 01:57:16;;;;;;;8.63;7.83;;;17.90;99.90;;;;;;5037819;28;20264;-61
2023/06/18 01:59:44;;;;;;;9.07;8.17;;;17.90;99.90;;;;;;5036621;28;20174;-61
2023/06/18 02:02:12;;;;;;;8.73;7.83;;;17.80;99.90;;;;;;5037097;28;20170;-60
2023/06/18 02:04:43;;;;;;;8.97;8.03;;;17.80;99.90;;;;;;5036702;28;20613;-61
2023/06/18 02:07:12;;;;;;;8.63;7.63;;;17.80;99.90;;;;;;5035763;28;20182;-61
2023/06/18 02:09:37;;;;;;;8.93;8.00;;;17.80;99.90;;;;;;5037511;28;20169;-60
2023/06/18 02:12:03;;;;;;;12.17;8.43;;;17.70;99.90;;;;;;5037345;28;20268;-60
2023/06/18 02:14:30;;;;;;;9.07;8.17;;;17.70;99.90;;;;;;5037579;28;20166;-66
2023/06/18 02:16:56;;;;;;;9.33;8.43;;;17.60;99.90;;;;;;5037633;28;20615;-61
2023/06/18 02:19:21;;;;;;;8.57;7.77;;;17.60;99.90;;;;;;5038450;28;20205;-60
2023/06/18 02:21:47;;;;;;;8.63;7.73;;;17.60;99.90;;;;;;5037814;28;20215;-60
2023/06/18 02:24:15;;;;;;;9.67;8.73;;;17.60;99.90;;;;;;5038690;28;20206;-59
2023/06/18 02:26:42;;;;;;;8.87;8.00;;;17.60;99.90;;;;;;5037905;28;20206;-61
2023/06/18 02:29:07;;;;;;;8.90;7.70;;;17.60;99.90;;;;;;5037853;28;20444;-61
2023/06/18 02:31:33;;;;;;;10.07;8.93;;;17.50;99.90;;;;;;5038226;28;20268;-61
2023/06/18 02:33:59;;;;;;;10.17;8.33;;;17.50;99.90;;;;;;5038434;28;20266;-61
2023/06/18 02:36:24;;;;;;;9.43;8.30;;;17.40;99.90;;;;;;5038904;28;20170;-60
2023/06/18 02:38:52;;;;;;;9.53;8.17;;;17.40;99.90;;;;;;5038504;28;20182;-61
2023/06/18 02:41:18;;;;;;;9.67;8.27;;;17.30;99.90;;;;;;5038438;28;20233;-61
2023/06/18 02:43:49;;;;;;;10.97;9.10;;;17.30;99.90;;;;;;5038333;28;20550;-60
2023/06/18 02:46:16;;;;;;;11.00;8.03;;;17.30;99.90;;;;;;5037825;28;20309;-57
2023/06/18 02:48:41;;;;;;;10.40;8.33;;;17.30;99.90;;;;;;5037375;28;20185;-60
2023/06/18 02:51:07;;;;;;;12.37;8.63;;;17.30;99.90;;;;;;5037849;28;20170;-60
2023/06/18 02:53:33;;;;;;;9.43;8.43;;;17.30;99.90;;;;;;5038709;28;20174;-60
2023/06/18 02:55:58;;;;;;;9.70;8.80;;;17.30;99.90;;;;;;5039044;28;20475;-61
2023/06/18 02:58:30;;;;;;;10.53;9.43;;;17.30;99.90;;;;;;5037077;28;20188;-60
2023/06/18 03:01:12;;;;;;;10.17;9.17;;;17.30;99.90;;;;;;5038187;28;20167;-60
2023/06/18 03:03:37;;;;;;;10.10;9.00;;;17.30;99.90;;;;;;5038658;28;20175;-60
2023/06/18 03:06:04;;;;;;;11.37;10.17;;;17.20;99.90;;;;;;5037933;28;20240;-61
2023/06/18 03:08:29;;;;;;;9.73;8.77;;;17.20;99.90;;;;;;5038121;28;20460;-60
2023/06/18 03:10:55;;;;;;;10.80;9.60;;;17.20;99.90;;;;;;5037500;28;20182;-60
2023/06/18 03:13:21;;;;;;;10.73;9.23;;;17.20;99.90;;;;;;5037768;28;20170;-57
2023/06/18 03:15:46;;;;;;;10.73;9.63;;;17.20;99.90;;;;;;5037617;28;20177;-62
2023/06/18 03:18:12;;;;;;;11.37;9.17;;;17.20;99.90;;;;;;5036426;28;20240;-61
2023/06/18 03:20:37;;;;;;;10.67;9.57;;;17.20;99.90;;;;;;5035411;28;20242;-61
2023/06/18 03:23:03;;;;;;;17.43;10.53;;;17.10;99.90;;;;;;5036991;28;20217;-61
2023/06/18 03:25:38;;;;;;;10.27;9.03;;;17.10;99.90;;;;;;5037190;28;20485;-61
2023/06/18 03:28:03;;;;;;;11.00;10.00;;;17.10;99.90;;;;;;5035728;28;20605;-61
2023/06/18 03:30:29;;;;;;;10.43;9.43;;;17.10;99.90;;;;;;5035220;28;20171;-61
2023/06/18 03:32:56;;;;;;;10.63;9.60;;;17.10;99.90;;;;;;5035194;28;20633;-61
2023/06/18 03:35:21;;;;;;;10.67;9.57;;;17.10;99.90;;;;;;5035126;28;20619;-61
2023/06/18 03:37:47;;;;;;;12.83;9.83;;;17.10;99.90;;;;;;5034295;28;20273;-60
2023/06/18 03:40:13;;;;;;;11.10;9.90;;;17.10;99.90;;;;;;5035283;28;20177;-61
2023/06/18 03:42:38;;;;;;;11.20;9.83;;;17.10;99.90;;;;;;5033759;28;20554;-61
2023/06/18 03:45:05;;;;;;;10.40;9.30;;;17.10;99.90;;;;;;5031904;28;20178;-60
2023/06/18 03:47:31;;;;;;;12.93;10.43;;;17.10;99.90;;;;;;5032477;28;20773;-61
2023/06/18 03:49:56;;;;;;;11.63;10.50;;;17.10;99.90;;;;;;5032276;28;20170;-61
2023/06/18 03:52:22;;;;;;;10.20;9.20;;;17.00;99.90;;;;;;5032302;28;20181;-60
2023/06/18 03:54:47;;;;;;;10.67;9.67;;;17.00;99.90;;;;;;5032660;28;20174;-60
2023/06/18 03:57:13;;;;;;;11.67;9.90;;;17.00;99.90;;;;;;5032487;28;20173;-61
2023/06/18 03:59:38;;;;;;;14.50;10.93;;;17.00;99.90;;;;;;5033003;28;20170;-59
2023/06/18 04:02:05;;;;;;;10.87;9.77;;;17.00;99.90;;;;;;5033713;28;20167;-61
2023/06/18 04:04:30;;;;;;;10.43;9.43;;;17.00;99.90;;;;;;5032228;28;20221;-61
2023/06/18 04:06:56;;;;;;;11.00;9.90;;;17.10;99.90;;;;;;5031034;28;20500;-61
2023/06/18 04:09:22;;;;;;;12.17;10.23;;;17.10;99.90;;;;;;5033114;28;20180;-62
2023/06/18 04:11:48;;;;;;;12.87;11.10;;;17.10;99.90;;;;;;5033689;28;20177;-60
2023/06/18 04:14:13;;;;;;;12.00;10.63;;;17.10;99.90;;;;;;5033719;28;20585;-61
2023/06/18 04:16:39;;;;;;;11.93;10.30;;;17.10;99.90;;;;;;5033816;28;20329;-60
2023/06/18 04:19:05;;;;;;;12.10;10.90;;;17.00;99.90;;;;;;5032564;28;20485;-61
2023/06/18 04:21:31;;;;;;;10.97;9.87;;;17.10;99.90;;;;;;5033548;28;20216;-61
2023/06/18 04:23:59;;;;;;;11.17;10.07;;;17.10;99.90;;;;;;5035858;28;20253;-61
2023/06/18 04:26:26;;;;;;;10.33;9.30;;;17.10;99.90;;;;;;5036112;28;20201;-62
2023/06/18 04:28:51;;;;;;;13.73;10.63;;;17.20;99.90;;;;;;5036815;28;20557;-60
2023/06/18 04:31:17;;;;;;;12.90;10.67;;;17.20;99.90;;;;;;5035309;28;20170;-61
2023/06/18 04:33:56;;;;;;;12.30;11.00;;;17.10;99.90;;;;;;5036221;28;20260;-62
2023/06/18 04:36:22;;;;;;;11.63;9.07;;;17.20;99.90;;;;;;5036434;28;20204;-61
2023/06/18 04:38:48;;;;;;;10.47;9.47;;;17.20;99.90;;;;;;5036885;28;20178;-61
2023/06/18 04:41:13;;;;;;;10.93;9.83;;;17.20;99.90;;;;;;5036688;28;20209;-62
2023/06/18 04:43:39;;;;;;;11.10;9.90;;;17.20;99.90;;;;;;5036099;28;20176;-63
2023/06/18 04:46:04;;;;;;;12.13;9.20;;;17.20;99.90;;;;;;5035455;28;20205;-61
2023/06/18 04:48:30;;;;;;;9.30;8.50;;;17.20;99.90;;;;;;5034250;28;20208;-61
2023/06/18 04:50:56;;;;;;;8.87;8.00;;;17.30;99.90;;;;;;5033710;28;20166;-61
2023/06/18 04:53:21;;;;;;;9.70;8.70;;;17.30;99.90;;;;;;5034997;28;20277;-62
2023/06/18 04:55:48;;;;;;;9.47;8.47;;;17.30;99.90;;;;;;5033318;28;20173;-60
2023/06/18 04:58:13;;;;;;;8.43;7.63;;;17.30;99.90;;;;;;5033920;28;20166;-62
2023/06/18 05:00:39;;;;;;;8.37;7.57;;;17.30;99.90;;;;;;5033189;28;20174;-61
2023/06/18 05:03:05;;;;;;;8.10;7.30;;;17.40;99.90;;;;;;5032547;28;20186;-61
2023/06/18 05:05:31;;;;;;;8.70;7.90;;;17.40;99.90;;;;;;5033090;28;20580;-61
2023/06/18 05:07:57;;;;;;;8.20;7.40;;;17.40;99.90;;;;;;5033542;28;20217;-61
2023/06/18 05:10:22;;;;;;;8.57;7.33;;;17.40;99.90;;;;;;5034873;28;20207;-61
2023/06/18 05:12:48;;;;;;;7.60;6.80;;;17.40;99.90;;;;;;5034230;28;20162;-62
2023/06/18 05:15:14;;;;;;;7.70;6.90;;;17.50;99.90;;;;;;5034007;28;20236;-61
2023/06/18 05:17:40;;;;;;;7.67;6.97;;;17.50;99.90;;;;;;5035260;28;20172;-62
2023/06/18 05:20:06;;;;;;;8.30;7.50;;;17.50;99.90;;;;;;5033788;28;20180;-63
2023/06/18 05:22:33;;;;;;;9.07;8.13;;;17.50;99.90;;;;;;5035204;28;20763;-62
2023/06/18 05:24:59;;;;;;;8.33;7.33;;;17.50;99.90;;;;;;5035563;28;20237;-62
2023/06/18 05:27:28;;;;;;;7.90;7.20;;;17.50;99.90;;;;;;5034685;28;20170;-62
2023/06/18 05:29:57;;;;;;;7.63;6.93;;;17.50;99.90;;;;;;5034372;28;20173;-61
2023/06/18 05:32:22;;;;;;;8.00;7.20;;;17.50;99.90;;;;;;5034210;28;20466;-62
2023/06/18 05:34:48;;;;;;;8.53;7.67;;;17.50;99.90;;;;;;5034727;28;20176;-62
2023/06/18 05:37:14;;;;;;;8.37;7.57;;;17.60;99.90;;;;;;5035772;28;20177;-62
2023/06/18 05:39:40;;;;;;;10.57;9.30;;;17.60;99.90;;;;;;5035273;28;20555;-63
2023/06/18 05:42:06;;;;;;;9.37;8.57;;;17.60;99.90;;;;;;5036540;28;20194;-59
2023/06/18 05:44:32;;;;;;;8.80;7.30;;;17.60;99.90;;;;;;5038953;28;20170;-62
2023/06/18 05:46:58;;;;;;;8.57;7.63;;;17.60;99.90;;;;;;5037296;28;20198;-61
2023/06/18 05:49:24;;;;;;;8.33;7.50;;;17.60;99.90;;;;;;5038090;28;20627;-60
2023/06/18 05:51:50;;;;;;;8.50;7.60;;;17.60;99.90;;;;;;5036517;28;20171;-62
2023/06/18 05:54:15;;;;;;;8.43;7.57;;;17.60;99.90;;;;;;5036929;28;20166;-66
2023/06/18 05:56:41;;;;;;;9.13;8.23;;;17.70;99.90;;;;;;5037233;28;20174;-63
2023/06/18 05:59:07;;;;;;;9.03;8.13;;;17.70;99.90;;;;;;5035791;28;20698;-62
2023/06/18 06:01:33;;;;;;;9.00;8.10;;;17.70;99.90;;;;;;5035030;28;20178;-62
2023/06/18 06:04:00;;;;;;;9.00;8.10;;;17.70;99.90;;;;;;5037374;28;20235;-62
2023/06/18 06:06:26;;;;;;;9.73;8.83;;;17.70;99.90;;;;;;5039201;28;20304;-62
2023/06/18 06:08:52;;;;;;;9.27;8.30;;;17.70;99.90;;;;;;5040362;28;20170;-63
2023/06/18 06:11:18;;;;;;;9.20;8.30;;;17.80;99.90;;;;;;5056426;28;20169;-62
2023/06/18 06:13:44;;;;;;;9.47;8.57;;;17.80;99.90;;;;;;5038754;28;20173;-62
2023/06/18 06:16:11;;;;;;;9.87;8.87;;;17.80;99.90;;;;;;5039226;28;20169;-62
2023/06/18 06:18:37;;;;;;;8.63;7.93;;;17.80;99.90;;;;;;5037846;28;20200;-62
2023/06/18 06:21:04;;;;;;;8.33;7.53;;;17.80;99.90;;;;;;5034474;28;20181;-62
2023/06/18 06:23:30;;;;;;;8.40;7.60;;;17.90;99.90;;;;;;5034938;28;20561;-61
2023/06/18 06:25:56;;;;;;;8.07;7.27;;;17.90;99.90;;;;;;5034922;28;20205;-62
2023/06/18 06:28:22;;;;;;;9.07;8.17;;;17.90;99.90;;;;;;5052602;28;20158;-62
2023/06/18 06:30:48;;;;;;;10.77;9.10;;;17.90;99.90;;;;;;5033483;28;20165;-62
2023/06/18 06:33:14;;;;;;;9.23;8.03;;;17.90;99.90;;;;;;5052017;28;20177;-62
2023/06/18 06:35:39;;;;;;;9.57;8.57;;;17.90;99.90;;;;;;5035354;28;20166;-62
2023/06/18 06:38:05;;;;;;;8.43;7.37;;;18.00;99.90;;;;;;5035239;28;20181;-62
2023/06/18 06:40:31;;;;;;;8.00;7.30;;;18.00;99.90;;;;;;5038057;28;20239;-62
2023/06/18 06:42:56;;;;;;;9.10;8.20;;;18.00;99.90;;;;;;5036411;28;20169;-62
2023/06/18 06:45:23;;;;;;;7.57;6.87;;;18.00;99.90;;;;;;5036372;28;20196;-62
2023/06/18 06:47:48;;;;;;;9.10;7.53;;;18.00;99.90;;;;;;5036922;28;20165;-63
2023/06/18 06:50:15;;;;;;;9.40;6.70;;;18.10;99.90;;;;;;5036156;28;20166;-61
2023/06/18 06:52:41;;;;;;;7.80;7.10;;;18.10;99.90;;;;;;5037133;28;20700;-62
2023/06/18 06:55:06;;;;;;;7.53;6.83;;;18.10;99.90;;;;;;5037293;28;20720;-63
2023/06/18 06:57:32;;;;;;;8.73;7.50;;;18.20;99.90;;;;;;5036804;28;20173;-62
2023/06/18 06:59:59;;;;;;;8.33;7.17;;;18.20;99.90;;;;;;5053879;28;20758;-62
2023/06/18 07:02:25;;;;;;;10.73;8.87;;;18.20;99.90;;;;;;5054091;28;20193;-62
2023/06/18 07:04:50;;;;;;;7.63;6.93;;;18.20;99.90;;;;;;5032124;28;20249;-62
2023/06/18 07:07:16;;;;;;;7.90;7.20;;;18.30;99.90;;;;;;5032291;28;20610;-62
2023/06/18 07:09:43;;;;;;;7.07;6.40;;;18.40;99.90;;;;;;5034580;28;20538;-63
2023/06/18 07:12:09;;;;;;;7.17;6.40;;;18.40;99.90;;;;;;5033399;28;20175;-62
2023/06/18 07:14:35;;;;;;;7.70;6.20;;;18.40;99.90;;;;;;5034693;28;20168;-62
2023/06/18 07:17:01;;;;;;;6.90;6.20;;;18.50;99.90;;;;;;5034090;28;20706;-62
2023/06/18 07:19:26;;;;;;;6.47;5.87;;;18.50;99.90;;;;;;5032248;28;20277;-60
2023/06/18 07:21:53;;;;;;;6.90;6.07;;;18.50;99.90;;;;;;5032117;28;20213;-62
2023/06/18 07:24:20;;;;;;;8.80;6.20;;;18.50;99.90;;;;;;5031975;28;20206;-61
2023/06/18 07:26:46;;;;;;;6.07;5.00;;;18.60;99.90;;;;;;5031470;28;20232;-62
2023/06/18 07:29:11;;;;;;;5.30;4.80;;;18.60;99.90;;;;;;5015195;28;20170;-62
2023/06/18 07:31:37;;;;;;;5.63;5.13;;;18.60;99.90;;;;;;5031128;28;20171;-62
2023/06/18 07:34:03;;;;;;;5.90;5.30;;;18.60;99.90;;;;;;5032110;28;20169;-62
2023/06/18 07:36:29;;;;;;;6.90;6.30;;;18.60;99.90;;;;;;5031811;28;20240;-62
2023/06/18 07:38:56;;;;;;;7.90;7.07;;;18.70;99.90;;;;;;5032169;28;20190;-62
2023/06/18 07:41:22;;;;;;;10.73;6.47;;;18.80;99.90;;;;;;5032482;28;20185;-63
2023/06/18 07:43:47;;;;;;;6.23;5.60;;;19.10;99.90;;;;;;5031826;28;20178;-63
2023/06/18 07:46:13;;;;;;;5.73;4.93;;;19.10;99.90;;;;;;5032048;28;20216;-62
2023/06/18 07:48:39;;;;;;;5.53;4.97;;;19.10;99.90;;;;;;5031720;28;20182;-62
2023/06/18 07:51:05;;;;;;;7.43;5.67;;;19.10;99.90;;;;;;5032481;28;20684;-64
2023/06/18 07:53:34;;;;;;;5.33;4.83;;;19.10;99.90;;;;;;5032843;28;20174;-62
2023/06/18 07:56:00;;;;;;;7.50;4.97;;;19.10;99.90;;;;;;5032773;28;20181;-62
2023/06/18 07:58:26;;;;;;;5.63;5.07;;;19.10;99.90;;;;;;5032317;28;20558;-62
2023/06/18 08:00:51;;;;;;;5.63;5.13;;;19.20;99.90;;;;;;5031299;28;20182;-62
2023/06/18 08:03:18;;;;;;;6.50;4.73;;;19.10;99.90;;;;;;5030055;28;20329;-62
2023/06/18 08:05:44;;;;;;;5.57;4.73;;;19.20;99.90;;;;;;5030147;28;20345;-62
2023/06/18 08:08:09;;;;;;;4.97;4.47;;;19.20;99.90;;;;;;5030813;28;20526;-62
2023/06/18 08:10:35;;;;;;;4.37;3.97;;;19.20;99.90;;;;;;5031876;28;20182;-62
2023/06/18 08:13:00;;;;;;;5.00;4.60;;;19.20;99.90;;;;;;5030707;28;20174;-63
2023/06/18 08:15:27;;;;;;;5.10;4.60;;;19.30;99.90;;;;;;5028196;28;20456;-63
2023/06/18 08:17:53;;;;;;;4.60;4.17;;;19.30;99.90;;;;;;5027718;28;20169;-63
2023/06/18 08:20:19;;;;;;;8.27;4.50;;;19.30;99.90;;;;;;5026794;28;20173;-62
2023/06/18 08:22:44;;;;;;;3.97;3.57;;;19.40;99.90;;;;;;5030045;28;20178;-62
2023/06/18 08:25:10;;;;;;;4.60;4.03;;;19.40;99.90;;;;;;5030897;28;20174;-63
2023/06/18 08:27:36;;;;;;;4.77;4.37;;;19.50;99.90;;;;;;5030600;28;20166;-62
2023/06/18 08:30:06;;;;;;;4.77;4.37;;;19.50;99.90;;;;;;5029663;28;20169;-62
2023/06/18 08:32:32;;;;;;;4.67;4.27;;;19.60;99.90;;;;;;5029714;28;20174;-63
2023/06/18 08:34:58;;;;;;;4.77;4.33;;;19.60;99.90;;;;;;5029787;28;20170;-62
2023/06/18 08:37:23;;;;;;;6.87;5.30;;;19.60;99.90;;;;;;5030568;28;20174;-62
2023/06/18 08:39:50;;;;;;;4.80;4.40;;;19.70;99.90;;;;;;5029977;28;20174;-62
2023/06/18 08:42:20;;;;;;;7.40;4.57;;;19.80;99.90;;;;;;5030658;28;20186;-62
2023/06/18 08:44:47;;;;;;;5.20;4.70;;;19.80;99.90;;;;;;5030702;28;20174;-62
2023/06/18 08:47:16;;;;;;;4.73;4.23;;;19.90;99.90;;;;;;5031649;28;20209;-63
2023/06/18 08:49:44;;;;;;;4.83;4.37;;;19.90;99.90;;;;;;5031911;28;20205;-62
2023/06/18 08:52:14;;;;;;;4.97;4.47;;;19.90;99.90;;;;;;5033925;28;20162;-62
2023/06/18 08:54:46;;;;;;;6.77;4.50;;;20.00;99.90;;;;;;5031679;28;20178;-62
2023/06/18 08:57:25;;;;;;;5.43;4.40;;;20.00;99.90;;;;;;5030875;28;20569;-63
2023/06/18 08:59:51;;;;;;;4.43;4.03;;;20.10;99.90;;;;;;5032783;28;20185;-63
2023/06/18 09:02:21;;;;;;;5.77;4.40;;;20.10;99.90;;;;;;5031545;28;20173;-62
2023/06/18 09:04:47;;;;;;;5.17;4.67;;;20.20;99.90;;;;;;5041932;28;20239;-63
2023/06/18 09:07:14;;;;;;;4.73;4.23;;;20.30;99.90;;;;;;5035023;28;20205;-62
2023/06/18 09:09:40;;;;;;;6.67;4.57;;;20.40;99.90;;;;;;5034863;28;20169;-62
2023/06/18 09:12:06;;;;;;;5.33;4.83;;;20.60;99.90;;;;;;5035168;28;20173;-61
2023/06/18 09:14:33;;;;;;;5.87;4.70;;;20.70;99.90;;;;;;5035201;28;20201;-61
2023/06/18 09:16:59;;;;;;;4.90;4.40;;;20.70;99.90;;;;;;5035173;28;20485;-62
2023/06/18 09:19:25;;;;;;;4.17;3.83;;;20.70;99.90;;;;;;5037769;28;20170;-61
2023/06/18 09:21:52;;;;;;;4.60;4.20;;;20.70;99.90;;;;;;5036494;28;20798;-61
2023/06/18 09:24:21;;;;;;;6.13;3.87;;;20.70;99.90;;;;;;5036282;28;20223;-62
2023/06/18 09:26:50;;;;;;;5.17;3.77;;;20.70;99.90;;;;;;5036306;28;20646;-61
2023/06/18 09:29:17;;;;;;;4.20;3.80;;;20.70;99.90;;;;;;5037160;28;20201;-61
2023/06/18 09:31:45;;;;;;;4.13;3.83;;;20.70;99.90;;;;;;5055260;28;20208;-61
2023/06/18 09:34:15;;;;;;;6.23;3.97;;;20.70;99.90;;;;;;5023772;28;20176;-62
2023/06/18 09:36:42;;;;;;;3.83;3.40;;;20.80;99.90;;;;;;5022629;28;20186;-62
2023/06/18 09:39:15;;;;;;;5.13;3.50;;;20.80;99.90;;;;;;5060630;28;20805;-62
2023/06/18 09:41:43;;;;;;;3.90;3.30;;;20.90;99.90;;;;;;5059893;28;20269;-62
2023/06/18 09:44:12;;;;;;;4.77;3.77;;;20.90;99.90;;;;;;5041439;28;20264;-61
2023/06/18 09:46:41;;;;;;;4.97;4.00;;;21.00;99.90;;;;;;5058163;28;20300;-61
2023/06/18 09:49:06;;;;;;;4.30;3.90;;;21.00;99.90;;;;;;5037807;28;20205;-60
2023/06/18 09:51:38;;;;;;;4.43;4.03;;;21.40;99.90;;;;;;5035657;28;20197;-61
2023/06/18 09:54:05;;;;;;;5.27;4.13;;;21.50;99.90;;;;;;5054310;28;20199;-62
2023/06/18 09:56:32;;;;;;;5.17;3.93;;;21.60;99.90;;;;;;5037162;28;20201;-62
2023/06/18 09:59:01;;;;;;;4.43;4.03;;;21.80;99.90;;;;;;5036437;28;20486;-62
2023/06/18 10:01:28;;;;;;;4.43;4.03;;;21.80;99.90;;;;;;5050733;28;20555;-60
2023/06/18 10:03:54;;;;;;;5.93;5.00;;;21.90;99.90;;;;;;5034154;28;20306;-62
2023/06/18 10:06:22;;;;;;;4.00;3.70;;;21.90;99.90;;;;;;5034060;28;20213;-61
2023/06/18 10:08:53;;;;;;;4.77;4.30;;;22.00;99.90;;;;;;5036453;28;20740;-61
2023/06/18 10:11:21;;;;;;;6.17;5.17;;;21.90;99.90;;;;;;5035170;28;20166;-61
2023/06/18 10:13:56;;;;;;;4.90;4.40;;;22.00;99.90;;;;;;5052462;28;20219;-59
2023/06/18 10:16:26;;;;;;;5.90;5.27;;;22.10;99.90;;;;;;5019975;28;20211;-61
2023/06/18 10:19:02;;;;;;;5.93;5.33;;;22.20;99.90;;;;;;5035715;28;20181;-61
2023/06/18 10:21:30;;;;;;;5.30;4.57;;;22.10;99.90;;;;;;5033766;28;20263;-61
2023/06/18 10:24:05;;;;;;;4.57;4.17;;;22.10;99.90;;;;;;5050948;28;20733;-60
2023/06/18 10:26:31;;;;;;;4.47;3.73;;;22.20;99.90;;;;;;5033287;28;20216;-61
2023/06/18 10:28:58;;;;;;;6.07;4.63;;;22.10;99.90;;;;;;5050961;28;20311;-61
2023/06/18 10:31:25;;;;;;;4.70;4.30;;;22.40;99.90;;;;;;5050160;28;20599;-62
2023/06/18 10:33:51;;;;;;;5.30;4.90;;;22.40;99.90;;;;;;5033913;28;20166;-60
2023/06/18 10:36:18;;;;;;;5.07;4.57;;;22.50;99.90;;;;;;5032640;28;20316;-61
2023/06/18 10:38:45;;;;;;;4.73;4.33;;;22.50;99.90;;;;;;5032673;28;20173;-61
2023/06/18 10:41:19;;;;;;;5.20;4.70;;;22.40;99.90;;;;;;5050377;28;20572;-61
2023/06/18 10:43:50;;;;;;;4.87;4.43;;;22.40;99.90;;;;;;5034835;28;20225;-62
2023/06/18 10:46:16;;;;;;;6.83;5.00;;;22.50;99.90;;;;;;5035813;28;20262;-62
2023/06/18 10:49:20;;;;;;;5.33;4.83;;;22.50;99.90;;;;;;5036123;28;20170;-61
2023/06/18 10:51:59;;;;;;;5.47;4.93;;;22.50;99.90;;;;;;5052840;28;20615;-61
2023/06/18 10:54:29;;;;;;;4.60;4.20;;;22.50;99.90;;;;;;5035615;28;20174;-60
2023/06/18 10:56:56;;;;;;;4.90;4.50;;;22.50;99.90;;;;;;5019942;28;20178;-61
2023/06/18 10:59:36;;;;;;;4.60;4.20;;;22.50;99.90;;;;;;5052890;28;20652;-61
2023/06/18 11:02:02;;;;;;;4.57;4.17;;;22.60;99.90;;;;;;5033260;28;20184;-62
2023/06/18 11:04:37;;;;;;;4.90;4.40;;;22.60;99.90;;;;;;5033342;28;20229;-61
2023/06/18 11:07:25;;;;;;;4.73;4.10;;;22.70;99.90;;;;;;5032967;28;20219;-61
2023/06/18 11:09:57;;;;;;;5.60;3.90;;;22.80;99.90;;;;;;5031714;28;20210;-61
2023/06/18 11:12:29;;;;;;;5.57;4.40;;;22.90;99.90;;;;;;5032314;28;20163;-61
2023/06/18 11:15:16;;;;;;;4.57;3.97;;;23.10;99.90;;;;;;5031041;28;20170;-61
2023/06/18 11:18:04;;;;;;;4.37;3.97;;;23.20;99.90;;;;;;5010843;28;20236;-61
2023/06/18 11:20:33;;;;;;;4.00;3.70;;;23.10;99.90;;;;;;5010280;28;20239;-61
2023/06/18 11:23:01;;;;;;;5.20;4.17;;;23.10;99.90;;;;;;5007814;28;20200;-60
2023/06/18 11:25:29;;;;;;;4.93;4.43;;;23.20;99.90;;;;;;5006640;28;20293;-61
2023/06/18 11:28:01;;;;;;;7.17;4.40;;;23.20;99.90;;;;;;5007523;28;20187;-61
2023/06/18 11:30:33;;;;;;;4.07;3.77;;;23.20;99.90;;;;;;5005858;28;20182;-61
2023/06/18 11:33:00;;;;;;;5.30;4.80;;;23.20;99.90;;;;;;5004849;28;20174;-61
2023/06/18 11:35:30;;;;;;;4.97;4.47;;;23.50;99.90;;;;;;5004673;28;20201;-60
2023/06/18 11:37:56;;;;;;;5.00;4.43;;;23.70;99.90;;;;;;5006055;28;20240;-60
2023/06/18 11:40:22;;;;;;;5.53;5.00;;;23.70;99.90;;;;;;5009508;28;20261;-60
2023/06/18 11:42:50;;;;;;;7.70;4.70;;;23.70;99.90;;;;;;5009962;28;20731;-60
2023/06/18 11:45:17;;;;;;;5.00;4.53;;;23.70;99.90;;;;;;5010437;28;20191;-60
2023/06/18 11:47:48;;;;;;;5.57;4.43;;;23.70;99.90;;;;;;5010803;28;20174;-61
2023/06/18 11:50:15;;;;;;;5.77;5.13;;;23.90;99.90;;;;;;5010067;28;20193;-61
2023/06/18 11:52:43;;;;;;;5.03;4.63;;;24.00;99.90;;;;;;5009967;28;20248;-60
2023/06/18 11:55:09;;;;;;;5.93;5.03;;;24.00;99.90;;;;;;5008764;28;20681;-61
2023/06/18 11:57:35;;;;;;;5.17;4.77;;;24.20;99.90;;;;;;5008289;28;20171;-61
2023/06/18 12:00:06;;;;;;;5.23;4.67;;;24.20;99.90;;;;;;5009237;28;20257;-61
2023/06/18 12:02:31;;;;;;;6.87;4.87;;;24.20;99.90;;;;;;5011266;28;20217;-62
2023/06/18 12:05:04;;;;;;;5.23;4.73;;;24.30;99.90;;;;;;5019749;28;20599;-62
2023/06/18 12:07:31;;;;;;;5.10;4.60;;;24.30;99.90;;;;;;5029054;28;20258;-62
2023/06/18 12:10:03;;;;;;;4.70;4.30;;;24.30;99.90;;;;;;5029229;28;20174;-61
2023/06/18 12:13:01;;;;;;;4.13;3.83;;;24.30;99.90;;;;;;5012581;28;20741;-61
2023/06/18 12:15:49;;;;;;;4.37;3.97;;;24.30;99.90;;;;;;5029876;28;20186;-62
2023/06/18 12:18:23;;;;;;;5.23;4.67;;;24.40;99.90;;;;;;5028153;28;20244;-61
2023/06/18 12:20:50;;;;;;;10.70;4.33;;;24.50;99.90;;;;;;5044826;28;20176;-63
2023/06/18 12:23:16;;;;;;;4.90;4.47;;;24.60;99.90;;;;;;5046608;28;20174;-62
2023/06/18 12:25:42;;;;;;;4.60;4.20;;;24.70;99.90;;;;;;5030284;28;20197;-63
2023/06/18 12:28:08;;;;;;;4.80;4.20;;;24.80;99.90;;;;;;5030381;28;20629;-62
2023/06/18 12:30:39;;;;;;;7.10;4.53;;;24.90;99.90;;;;;;5013085;28;20206;-62
2023/06/18 12:33:12;;;;;;;5.03;4.53;;;24.90;99.90;;;;;;5014205;28;20234;-62
2023/06/18 12:35:53;;;;;;;4.37;3.97;;;24.80;99.90;;;;;;5013551;28;20189;-61
2023/06/18 12:38:21;;;;;;;8.03;4.83;;;24.80;99.90;;;;;;5030723;28;20182;-62
2023/06/18 12:41:02;;;;;;;4.60;4.20;;;24.70;99.90;;;;;;5015012;28;20578;-62
2023/06/18 12:43:29;;;;;;;5.27;4.77;;;24.70;99.90;;;;;;5014902;28;20220;-62
2023/06/18 12:45:56;;;;;;;7.50;3.97;;;24.70;99.90;;;;;;5014536;28;20255;-62